Time;durP1;ratioP1;P1;durP2;ratioP2;P2;SDS_P1;SDS_P2;PMS_P1;PMS_P2;Temp;Humidity;BMP_temperature;BMP_pressure;BME280_temperature;BME280_humidity;BME280_pressure;Samples;Min_cycle;Max_cycle;Signal;HPM_P1;HPM_P2
2022/04/26 03:38:04;;;;;;;3.47;1.40;;;;;;;-0.16;100.00;101312.25;5094661;28;20039;-46
2022/04/26 03:40:30;;;;;;;3.83;1.73;;;;;;;-0.20;100.00;101311.63;5100037;28;20019;-49
2022/04/26 03:42:55;;;;;;;5.75;1.73;;;;;;;-0.24;100.00;101317.97;5103129;28;20043;-48
2022/04/26 03:45:21;;;;;;;6.68;1.42;;;;;;;-0.28;100.00;101322.56;5109944;28;20085;-48
2022/04/26 03:47:46;;;;;;;2.10;1.73;;;;;;;-0.33;100.00;101314.19;5096007;28;20040;-50
2022/04/26 03:50:11;;;;;;;5.50;3.05;;;;;;;-0.36;100.00;101318.75;5107124;28;20043;-48
2022/04/26 03:52:40;;;;;;;3.47;1.73;;;;;;;-0.42;100.00;101314.78;5096429;28;20099;-49
2022/04/26 03:55:06;;;;;;;6.22;1.45;;;;;;;-0.46;100.00;101311.56;5099759;28;20476;-47
2022/04/26 03:57:31;;;;;;;5.93;1.88;;;;;;;-0.46;100.00;101314.16;5077309;28;20090;-51
2022/04/26 03:59:57;;;;;;;4.93;2.28;;;;;;;-0.48;100.00;101321.22;5104852;28;20063;-48
2022/04/26 04:02:22;;;;;;;2.90;1.65;;;;;;;-0.53;100.00;101314.66;5104794;28;20043;-48
2022/04/26 04:04:47;;;;;;;2.05;1.17;;;;;;;-0.56;100.00;101327.88;5107675;28;20089;-46
2022/04/26 04:07:13;;;;;;;2.22;1.48;;;;;;;-0.57;100.00;101326.19;5100482;28;20523;-51
2022/04/26 04:09:38;;;;;;;9.68;1.80;;;;;;;-0.63;100.00;101327.41;5099570;28;20028;-48
2022/04/26 04:12:04;;;;;;;2.03;1.15;;;;;;;-0.68;100.00;101326.88;5103171;28;20402;-46
2022/04/26 04:14:29;;;;;;;1.67;1.45;;;;;;;-0.75;100.00;101325.59;5100839;28;20027;-46
2022/04/26 04:16:57;;;;;;;1.13;1.13;;;;;;;-0.81;100.00;101324.22;5102012;28;20635;-46
2022/04/26 04:19:23;;;;;;;2.92;1.50;;;;;;;-0.79;100.00;101332.78;5101905;28;20039;-47
2022/04/26 04:21:50;;;;;;;3.13;1.60;;;;;;;-0.78;100.00;101326.63;5098569;28;20084;-47
2022/04/26 04:24:16;;;;;;;2.65;2.05;;;;;;;-0.82;100.00;101340.78;5093756;28;20515;-48
2022/04/26 04:26:42;;;;;;;3.67;1.40;;;;;;;-0.85;100.00;101338.38;5097416;28;20028;-46
2022/04/26 04:29:08;;;;;;;7.55;2.13;;;;;;;-0.89;100.00;101347.31;5099702;28;20554;-50
2022/04/26 04:31:34;;;;;;;4.57;1.63;;;;;;;-0.94;100.00;101338.94;5097878;28;20028;-48
2022/04/26 04:34:01;;;;;;;3.42;2.35;;;;;;;-0.96;100.00;101343.41;5096385;28;20027;-47
2022/04/26 04:36:27;;;;;;;2.45;1.23;;;;;;;-0.98;100.00;101345.25;5103694;28;20050;-51
2022/04/26 04:38:52;;;;;;;3.33;2.15;;;;;;;-0.99;100.00;101352.22;5104636;28;20063;-48
2022/04/26 04:41:18;;;;;;;1.73;1.60;;;;;;;-1.00;100.00;101355.78;5098844;28;20442;-48
2022/04/26 04:43:44;;;;;;;11.57;2.58;;;;;;;-1.02;100.00;101362.00;5093700;28;20032;-47
2022/04/26 04:46:10;;;;;;;4.13;2.22;;;;;;;-1.08;100.00;101363.22;5101034;28;20032;-48
2022/04/26 04:48:35;;;;;;;5.40;1.90;;;;;;;-1.10;100.00;101360.72;5101205;28;20023;-50
2022/04/26 04:51:01;;;;;;;4.07;1.08;;;;;;;-1.11;100.00;101359.06;5101755;28;20032;-46
2022/04/26 04:53:26;;;;;;;6.53;1.80;;;;;;;-1.13;100.00;101360.91;5102968;28;20449;-46
2022/04/26 04:55:52;;;;;;;2.15;1.23;;;;;;;-1.12;100.00;101367.78;5097924;28;20055;-47
2022/04/26 04:58:17;;;;;;;2.53;2.13;;;;;;;-1.09;100.00;101366.75;5084316;28;20062;-46
2022/04/26 05:00:43;;;;;;;2.22;2.03;;;;;;;-1.02;100.00;101362.00;5096571;28;20106;-48
2022/04/26 05:03:08;;;;;;;3.70;2.20;;;;;;;-1.02;100.00;101375.84;5093861;28;20498;-46
2022/04/26 05:05:34;;;;;;;3.08;1.60;;;;;;;-1.00;100.00;101375.78;5103598;28;20560;-51
2022/04/26 05:08:00;;;;;;;2.95;2.03;;;;;;;-1.03;100.00;101370.72;5101505;28;20556;-46
2022/04/26 05:10:26;;;;;;;3.00;1.83;;;;;;;-1.03;100.00;101378.53;5097696;28;20055;-47
2022/04/26 05:12:51;;;;;;;2.92;1.30;;;;;;;-1.07;100.00;101385.72;5101931;28;20353;-46
2022/04/26 05:15:16;;;;;;;2.03;1.33;;;;;;;-1.07;100.00;101390.09;5105668;28;20110;-48
2022/04/26 05:17:42;;;;;;;5.53;2.10;;;;;;;-1.09;100.00;101387.56;5092417;28;20068;-49
2022/04/26 05:20:08;;;;;;;4.45;1.73;;;;;;;-1.08;100.00;101389.25;5088014;28;20034;-49
2022/04/26 05:24:53;;;;;;;5.15;1.83;;;;;;;-1.06;100.00;101392.59;5094512;28;20052;-46
2022/04/26 05:25:19;;;;;;;2.80;1.60;;;;;;;-1.06;100.00;101397.78;5102807;28;20042;-47
2022/04/26 05:27:44;;;;;;;6.82;1.10;;;;;;;-1.00;100.00;101401.81;5103663;28;20024;-45
2022/04/26 05:30:10;;;;;;;2.28;1.67;;;;;;;-0.97;100.00;101401.63;5104205;28;20031;-48
2022/04/26 05:32:35;;;;;;;1.80;1.60;;;;;;;-1.00;100.00;101402.63;5104079;28;20034;-49
2022/04/26 05:35:02;;;;;;;5.38;1.15;;;;;;;-1.01;100.00;101405.31;5102232;28;20031;-46
2022/04/26 05:37:30;;;;;;;2.72;1.42;;;;;;;-1.01;100.00;101407.94;5104700;28;20389;-46
2022/04/26 05:39:56;;;;;;;3.72;1.98;;;;;;;-0.99;100.00;101413.88;5106606;28;20028;-48
2022/04/26 05:42:22;;;;;;;2.60;1.70;;;;;;;-0.98;100.00;101415.53;5105678;28;20059;-47
2022/04/26 05:44:47;;;;;;;4.22;1.90;;;;;;;-0.94;100.00;101411.84;5093093;28;20495;-49
2022/04/26 05:47:13;;;;;;;1.45;1.35;;;;;;;-0.93;100.00;101423.91;5104472;28;20472;-48
2022/04/26 05:49:38;;;;;;;1.25;0.98;;;;;;;-0.94;100.00;101422.25;5100153;28;20036;-46
2022/04/26 05:52:04;;;;;;;4.60;1.85;;;;;;;-0.88;100.00;101422.72;5103063;28;20054;-46
2022/04/26 05:54:30;;;;;;;1.90;1.42;;;;;;;-0.80;100.00;101424.00;5112233;28;20088;-47
2022/04/26 05:56:55;;;;;;;5.00;1.88;;;;;;;-0.68;100.00;101425.84;5103223;28;20036;-46
2022/04/26 05:59:21;;;;;;;5.22;2.00;;;;;;;-0.53;100.00;101434.50;5107754;28;20038;-46
2022/04/26 06:01:47;;;;;;;5.55;2.67;;;;;;;-0.42;100.00;101428.59;5099906;28;20031;-47
2022/04/26 06:04:13;;;;;;;3.38;1.73;;;;;;;-0.33;100.00;101438.47;5105085;28;20031;-46
2022/04/26 06:06:38;;;;;;;5.57;2.00;;;;;;;-0.27;100.00;101448.47;5106716;28;20038;-47
2022/04/26 06:09:04;;;;;;;4.25;2.05;;;;;;;-0.24;100.00;101443.91;5109529;28;20346;-46
2022/04/26 06:11:29;;;;;;;5.63;1.70;;;;;;;-0.15;100.00;101454.69;5102815;28;20051;-48
2022/04/26 06:13:55;;;;;;;6.32;1.85;;;;;;;-0.15;100.00;101446.88;5108407;28;20028;-47
2022/04/26 06:16:20;;;;;;;3.53;1.70;;;;;;;0.02;100.00;101449.22;5090610;28;20476;-49
2022/04/26 06:18:46;;;;;;;2.92;2.55;;;;;;;0.08;100.00;101451.44;5086640;28;20566;-47
2022/04/26 06:21:11;;;;;;;2.63;2.00;;;;;;;0.15;100.00;101449.25;5103743;28;20110;-48
2022/04/26 06:23:36;;;;;;;8.13;2.83;;;;;;;0.27;100.00;101458.06;5102135;28;20073;-47
2022/04/26 06:26:02;;;;;;;5.72;1.55;;;;;;;0.38;100.00;101456.41;5103295;28;20106;-48
2022/04/26 06:28:27;;;;;;;3.50;2.00;;;;;;;0.51;100.00;101464.28;5097917;28;20032;-50
2022/04/26 06:30:55;;;;;;;3.25;2.33;;;;;;;0.67;100.00;101465.84;5095349;28;20092;-50
2022/04/26 06:33:20;;;;;;;2.00;1.77;;;;;;;0.79;100.00;101467.66;5092555;28;20032;-46
2022/04/26 06:35:46;;;;;;;3.45;2.53;;;;;;;0.89;100.00;101473.09;5100262;28;20138;-46
2022/04/26 06:38:11;;;;;;;9.13;3.58;;;;;;;1.04;100.00;101464.22;5104177;28;20042;-47
2022/04/26 06:40:36;;;;;;;4.60;2.10;;;;;;;1.15;100.00;101463.47;5096018;28;20028;-49
2022/04/26 06:43:02;;;;;;;3.50;2.42;;;;;;;1.27;100.00;101467.88;5102553;28;20028;-49
2022/04/26 06:45:27;;;;;;;5.30;2.47;;;;;;;1.38;100.00;101473.16;5102893;28;20093;-51
2022/04/26 06:47:54;;;;;;;4.13;2.88;;;;;;;1.48;100.00;101468.97;5102546;28;20019;-51
2022/04/26 06:50:21;;;;;;;6.82;2.17;;;;;;;1.65;100.00;101478.25;5100883;28;20043;-46
2022/04/26 06:52:47;;;;;;;5.25;2.90;;;;;;;1.81;100.00;101475.38;5099999;28;20024;-49
2022/04/26 06:55:12;;;;;;;7.15;3.42;;;;;;;2.25;100.00;101478.34;5098590;28;20436;-47
2022/04/26 06:57:38;;;;;;;4.50;2.63;;;;;;;2.71;100.00;101475.75;5108795;28;20063;-47
2022/04/26 07:00:07;;;;;;;4.18;2.85;;;;;;;3.04;100.00;101482.81;5106687;28;20115;-49
2022/04/26 07:02:33;;;;;;;5.00;2.88;;;;;;;3.49;100.00;101487.25;5093383;28;20043;-48
2022/04/26 07:04:58;;;;;;;3.05;2.35;;;;;;;3.85;100.00;101486.13;5104330;28;20036;-50
2022/04/26 07:07:24;;;;;;;5.60;2.17;;;;;;;4.19;100.00;101485.19;5089028;28;20161;-50
2022/04/26 07:09:49;;;;;;;2.83;2.00;;;;;;;4.35;100.00;101485.59;5102962;28;20072;-49
2022/04/26 07:12:14;;;;;;;7.20;1.60;;;;;;;4.57;100.00;101477.63;5099536;28;20034;-51
2022/04/26 07:14:40;;;;;;;4.53;1.23;;;;;;;4.83;100.00;101490.38;5097586;28;20034;-49
2022/04/26 07:17:05;;;;;;;9.57;2.85;;;;;;;5.08;100.00;101493.53;5108940;28;20042;-47
2022/04/26 07:19:36;;;;;;;4.10;1.80;;;;;;;5.26;100.00;101481.44;5084009;28;20028;-54
2022/04/26 07:22:03;;;;;;;5.25;1.73;;;;;;;5.43;100.00;101486.09;5095826;28;20020;-50
2022/04/26 07:24:31;;;;;;;2.67;1.40;;;;;;;5.61;100.00;101475.78;5096167;28;20031;-48
2022/04/26 07:26:56;;;;;;;2.92;1.05;;;;;;;5.74;100.00;101474.72;5100344;28;20059;-48
2022/04/26 07:29:21;;;;;;;4.82;1.55;;;;;;;5.88;100.00;101459.34;5102428;28;20110;-49
2022/04/26 07:31:47;;;;;;;2.08;0.85;;;;;;;5.98;100.00;101458.56;5100832;28;20108;-50
2022/04/26 07:34:21;;;;;;;0.93;0.75;;;;;;;6.15;100.00;101459.69;5094946;28;20032;-52
2022/04/26 07:36:48;;;;;;;1.20;0.63;;;;;;;6.33;100.00;101458.84;5085064;28;20032;-47
2022/04/26 07:39:16;;;;;;;3.72;1.70;;;;;;;6.46;100.00;101450.66;5093252;28;20047;-47
2022/04/26 07:41:41;;;;;;;1.33;1.00;;;;;;;6.52;100.00;101450.09;5095531;28;20020;-49
2022/04/26 07:44:06;;;;;;;0.88;0.52;;;;;;;6.65;100.00;101454.25;5088677;28;20020;-45
2022/04/26 07:46:32;;;;;;;2.15;1.05;;;;;;;6.85;100.00;101450.59;5098862;28;20376;-49
2022/04/26 07:48:57;;;;;;;2.35;1.00;;;;;;;7.11;100.00;101440.22;5103272;28;20604;-46
2022/04/26 07:51:22;;;;;;;1.35;0.68;;;;;;;7.24;100.00;101439.06;5090541;28;20092;-50
2022/04/26 07:53:48;;;;;;;2.35;0.68;;;;;;;7.24;100.00;101439.06;5097254;28;20024;-47
2022/04/26 07:56:13;;;;;;;1.77;0.60;;;;;;;7.38;100.00;101435.94;5099539;28;20027;-46
2022/04/26 07:58:39;;;;;;;0.90;0.50;;;;;;;7.60;100.00;101447.91;5087275;28;20028;-47
2022/04/26 08:01:04;;;;;;;1.60;1.05;;;;;;;7.74;100.00;101449.22;5096033;28;20112;-47
2022/04/26 08:03:32;;;;;;;0.95;0.73;;;;;;;7.83;100.00;101450.97;5099068;28;20106;-48
2022/04/26 08:05:58;;;;;;;0.43;0.30;;;;;;;7.92;100.00;101439.50;5108362;28;20031;-53
2022/04/26 08:08:23;;;;;;;0.77;0.77;;;;;;;8.02;100.00;101442.91;5097820;28;20031;-48
2022/04/26 08:10:49;;;;;;;0.47;0.40;;;;;;;8.10;100.00;101442.16;5100201;28;20116;-50
2022/04/26 08:13:15;;;;;;;2.38;0.35;;;;;;;8.24;100.00;101448.72;5095330;28;20491;-51
2022/04/26 08:15:40;;;;;;;1.25;0.45;;;;;;;8.42;100.00;101446.09;5095813;28;20035;-46
2022/04/26 08:18:06;;;;;;;0.88;0.63;;;;;;;8.46;100.00;101436.88;5094211;28;21057;-48
2022/04/26 08:20:32;;;;;;;0.28;0.20;;;;;;;8.57;100.00;101449.84;5098024;28;20092;-49
2022/04/26 08:22:58;;;;;;;0.80;0.68;;;;;;;8.66;100.00;101450.72;5090378;28;20055;-47
2022/04/26 08:28:07;;;;;;;0.60;0.38;;;;;;;8.95;100.00;101442.47;5094264;28;20034;-49
2022/04/26 08:30:34;;;;;;;0.70;0.25;;;;;;;9.14;100.00;101452.03;5087016;28;20028;-49
2022/04/26 08:32:59;;;;;;;1.25;0.68;;;;;;;9.25;100.00;101450.91;5090437;28;20113;-46
2022/04/26 08:35:27;;;;;;;1.77;0.70;;;;;;;9.38;100.00;101454.75;5096565;28;20059;-47
2022/04/26 08:37:53;;;;;;;1.48;0.70;;;;;;;9.45;100.00;101459.41;5107531;28;20031;-45
2022/04/26 08:40:19;;;;;;;0.45;0.35;;;;;;;9.55;100.00;101460.09;5100629;28;20028;-47
2022/04/26 08:42:46;;;;;;;2.50;0.60;;;;;;;9.60;100.00;101463.97;5092378;28;20036;-46
2022/04/26 08:45:14;;;;;;;1.45;0.70;;;;;;;9.75;100.00;101461.50;5099634;28;20436;-46
2022/04/26 08:53:09;;;;;;;2.92;0.77;;;;;;;10.20;100.00;101465.56;5093314;28;20525;-46
2022/04/26 08:55:42;;;;;;;0.43;0.30;;;;;;;10.21;100.00;101469.84;5097872;28;20440;-48
2022/04/26 08:58:11;;;;;;;1.15;1.05;;;;;;;10.17;100.00;101457.09;5099539;28;20039;-50
2022/04/26 09:00:39;;;;;;;0.73;0.60;;;;;;;10.15;100.00;101462.56;5099969;28;20244;-49
2022/04/26 09:03:07;;;;;;;0.35;0.10;;;;;;;10.21;100.00;101464.56;5097362;28;20020;-47
2022/04/26 09:05:33;;;;;;;1.58;0.30;;;;;;;10.34;100.00;101460.63;5097863;28;20020;-48
2022/04/26 09:07:59;;;;;;;0.70;0.38;;;;;;;10.57;100.00;101458.13;5097515;28;20442;-49
2022/04/26 09:10:26;;;;;;;0.20;0.20;;;;;;;10.62;100.00;101459.28;5100254;28;20019;-49
2022/04/26 09:13:10;;;;;;;0.30;0.20;;;;;;;10.76;100.00;101457.78;5104786;28;20080;-51
2022/04/26 09:15:44;;;;;;;0.85;0.10;;;;;;;10.93;100.00;101458.59;5106198;28;20024;-51
2022/04/26 09:18:13;;;;;;;3.15;0.50;;;;;;;11.18;100.00;101463.81;5100237;28;20066;-46
2022/04/26 09:20:39;;;;;;;1.27;0.20;;;;;;;11.27;100.00;101460.13;5104604;28;20032;-46
2022/04/26 09:23:16;;;;;;;0.82;0.43;;;;;;;11.12;100.00;101458.19;5091559;28;20032;-48
2022/04/26 09:25:42;;;;;;;0.43;0.17;;;;;;;11.09;100.00;101463.84;5090805;28;20396;-47
2022/04/26 09:28:08;;;;;;;5.50;0.35;;;;;;;11.01;100.00;101457.72;5100413;28;20023;-49
2022/04/26 09:30:33;;;;;;;1.52;0.40;;;;;;;11.01;100.00;101466.50;5103331;28;20106;-50
2022/04/26 09:32:58;;;;;;;0.38;0.20;;;;;;;11.10;100.00;101457.53;5098277;28;20106;-45
2022/04/26 09:35:29;;;;;;;1.35;0.63;;;;;;;11.39;100.00;101464.09;5098221;28;20380;-48
2022/04/26 09:37:55;;;;;;;0.80;0.80;;;;;;;11.66;100.00;101473.41;5101664;28;20097;-47
2022/04/26 09:40:20;;;;;;;1.65;0.30;;;;;;;11.81;100.00;101467.38;5107118;28;20027;-49
2022/04/26 09:42:48;;;;;;;0.55;0.20;;;;;;;11.85;100.00;101466.84;5092895;28;20084;-49
2022/04/26 09:45:15;;;;;;;0.50;0.30;;;;;;;12.00;100.00;101467.78;5095088;28;20415;-51
2022/04/26 09:47:42;;;;;;;0.98;0.50;;;;;;;12.26;100.00;101463.09;5093812;28;20183;-49
2022/04/26 09:50:09;;;;;;;0.20;0.20;;;;;;;12.37;100.00;101463.50;5101629;28;20020;-51
2022/04/26 09:52:39;;;;;;;2.45;0.95;;;;;;;12.33;100.00;101454.22;5089844;28;20024;-49
2022/04/26 09:55:07;;;;;;;1.45;0.90;;;;;;;12.26;100.00;101463.91;5099426;28;20028;-52
2022/04/26 09:57:35;;;;;;;0.30;0.30;;;;;;;12.18;100.00;101458.66;5099507;28;20507;-48
2022/04/26 10:00:04;;;;;;;0.10;0.10;;;;;;;12.29;100.00;101460.94;5087336;28;20181;-49
2022/04/26 10:02:35;;;;;;;0.65;0.10;;;;;;;12.48;100.00;101456.13;5099842;28;20275;-51
2022/04/26 10:05:05;;;;;;;;;;;;;;;12.73;100.00;101467.38;5099996;28;20113;-48
2022/04/26 10:07:44;;;;;;;0.17;0.17;;;;;;;13.05;100.00;101477.66;5098859;28;20391;-50
2022/04/26 10:10:10;;;;;;;0.20;0.10;;;;;;;13.20;100.00;101474.19;5096052;28;20116;-46
2022/04/26 10:12:36;;;;;;;0.75;0.20;;;;;;;13.23;100.00;101465.81;5093925;28;20024;-47
2022/04/26 10:15:03;;;;;;;2.63;0.80;;;;;;;13.31;100.00;101463.91;5099092;28;20034;-49
2022/04/26 10:17:32;;;;;;;0.28;0.28;;;;;;;13.29;100.00;101465.97;5108180;28;20036;-50
2022/04/26 10:19:59;;;;;;;0.70;0.40;;;;;;;13.27;100.00;101472.47;5111091;28;20494;-47
2022/04/26 10:22:55;;;;;;;0.85;0.50;;;;;;;13.18;100.00;101476.19;5103355;28;20471;-52
2022/04/26 10:25:21;;;;;;;0.40;0.30;;;;;;;13.40;100.00;101469.13;5105074;28;20637;-46
2022/04/26 10:28:27;;;;;;;0.73;0.13;;;;;;;13.06;100.00;101468.69;5108619;28;20122;-47
2022/04/26 10:30:54;;;;;;;1.88;0.45;;;;;;;13.36;100.00;101473.19;5100148;28;20410;-48
2022/04/26 10:33:36;;;;;;;4.38;1.90;;;;;;;13.37;100.00;101472.19;5109947;28;20023;-46
2022/04/26 10:36:35;;;;;;;3.08;0.68;;;;;;;13.54;100.00;101476.28;5079557;28;20183;-49
2022/04/26 10:39:06;;;;;;;1.30;0.68;;;;;;;13.78;100.00;101466.31;5104871;28;20039;-46
2022/04/26 10:41:41;;;;;;;1.42;0.63;;;;;;;13.69;100.00;101477.09;5103645;28;20073;-49
2022/04/26 10:44:41;;;;;;;2.55;0.43;;;;;;;13.84;98.26;101468.25;5107908;28;20069;-47
2022/04/26 10:47:06;;;;;;;0.45;0.10;;;;;;;14.14;100.00;101466.28;5085746;28;20051;-48
2022/04/26 10:49:32;;;;;;;0.30;0.28;;;;;;;14.33;98.95;101462.16;5106472;28;20464;-48
2022/04/26 10:52:23;;;;;;;0.57;0.20;;;;;;;13.92;90.78;101460.94;5110545;28;20042;-49
2022/04/26 10:54:51;;;;;;;;;;;;;;;14.11;96.35;101469.34;5092263;28;20043;-46
2022/04/26 10:57:21;;;;;;;1.65;0.28;;;;;;;14.03;96.32;101470.28;5101582;28;19916;-48
2022/04/26 10:59:47;;;;;;;1.33;0.22;;;;;;;13.86;97.95;101467.06;5099433;28;20038;-52
2022/04/26 11:02:21;;;;;;;1.60;0.60;;;;;;;13.76;86.96;101461.19;5097702;28;20513;-48
2022/04/26 11:04:54;;;;;;;1.58;0.50;;;;;;;13.72;94.13;101470.56;5100918;28;20146;-50
2022/04/26 11:07:25;;;;;;;0.68;0.25;;;;;;;13.64;93.85;101463.50;5101330;28;20479;-50
2022/04/26 11:09:54;;;;;;;3.78;0.50;;;;;;;14.15;96.77;101460.78;5097550;28;20066;-47
2022/04/26 11:12:28;;;;;;;0.52;0.43;;;;;;;14.38;93.80;101463.25;5096813;28;20028;-50
2022/04/26 11:14:56;;;;;;;2.67;0.73;;;;;;;14.32;93.49;101460.50;5100682;28;20502;-48
2022/04/26 11:17:22;;;;;;;0.40;0.30;;;;;;;14.25;91.95;101454.28;5101496;28;20373;-52
2022/04/26 11:19:51;;;;;;;1.55;0.63;;;;;;;14.19;84.38;101464.69;5093332;28;20039;-56
2022/04/26 11:22:18;;;;;;;1.85;0.80;;;;;;;14.22;85.45;101470.66;5098128;28;20031;-46
2022/04/26 11:30:23;;;;;;;0.52;0.40;;;;;;;14.92;86.16;101453.81;5100286;28;20051;-48
2022/04/26 11:32:49;;;;;;;1.73;0.35;;;;;;;15.33;88.52;101458.34;5096133;28;20036;-54
2022/04/26 11:35:15;;;;;;;1.13;0.40;;;;;;;15.54;87.43;101457.41;5102822;28;20380;-47
2022/04/26 11:37:53;;;;;;;1.88;0.40;;;;;;;15.66;78.83;101463.00;5102501;28;20131;-50
2022/04/26 11:40:29;;;;;;;0.50;0.38;;;;;;;15.18;79.42;101458.50;5100735;28;20028;-49
2022/04/26 11:42:57;;;;;;;1.77;0.20;;;;;;;15.11;77.46;101462.16;5092651;28;20374;-49
2022/04/26 11:45:28;;;;;;;2.13;0.32;;;;;;;15.08;77.88;101468.69;5099263;28;20032;-47
2022/04/26 11:47:54;;;;;;;1.13;0.20;;;;;;;15.50;78.84;101469.53;5104205;28;20074;-48
2022/04/26 11:50:27;;;;;;;0.55;0.55;;;;;;;15.91;78.83;101468.66;5098222;28;20035;-47
2022/04/26 11:53:00;;;;;;;0.45;0.43;;;;;;;16.02;76.62;101475.25;5098204;28;20027;-49
2022/04/26 11:55:30;;;;;;;2.60;0.50;;;;;;;16.29;79.17;101468.13;5104909;28;20028;-47
2022/04/26 11:58:19;;;;;;;0.20;0.20;;;;;;;16.44;76.26;101462.53;5101322;28;20051;-50
2022/04/26 12:01:15;;;;;;;1.10;0.35;;;;;;;16.06;74.79;101469.31;5095673;28;20031;-50
2022/04/26 12:03:46;;;;;;;2.45;0.80;;;;;;;16.34;76.84;101465.63;5097177;28;20032;-45
2022/04/26 12:06:13;;;;;;;1.60;0.57;;;;;;;16.48;75.25;101466.47;5103127;28;20388;-55
2022/04/26 12:08:45;;;;;;;3.90;0.75;;;;;;;16.49;75.90;101462.75;5109199;28;20067;-47
2022/04/26 12:11:23;;;;;;;6.45;0.38;;;;;;;16.72;76.42;101463.13;5093272;28;20580;-49
2022/04/26 12:14:00;;;;;;;5.38;0.52;;;;;;;16.86;73.95;101464.00;5093289;28;20089;-44
2022/04/26 12:16:26;;;;;;;0.60;0.60;;;;;;;15.77;69.63;101469.63;5100567;28;20080;-49
2022/04/26 12:18:54;;;;;;;0.30;0.20;;;;;;;15.06;74.36;101470.75;5102156;28;20540;-48
2022/04/26 12:21:21;;;;;;;1.38;0.57;;;;;;;15.53;76.14;101468.28;5099555;28;20381;-45
2022/04/26 12:23:46;;;;;;;1.50;1.40;;;;;;;16.29;73.67;101471.59;5092303;28;20472;-44
2022/04/26 12:26:13;;;;;;;0.95;0.65;;;;;;;16.94;71.54;101465.63;5108739;28;20031;-48
2022/04/26 12:28:46;;;;;;;0.80;0.43;;;;;;;17.30;70.91;101464.31;5103220;28;20122;-48
2022/04/26 12:31:29;;;;;;;1.02;0.43;;;;;;;17.49;68.18;101466.06;5099508;28;20043;-50
2022/04/26 12:34:15;;;;;;;0.65;0.52;;;;;;;17.51;67.70;101450.59;5087371;28;20567;-50
2022/04/26 12:37:00;;;;;;;0.85;0.35;;;;;;;17.97;70.66;101457.59;5109558;28;20032;-47
2022/04/26 12:39:39;;;;;;;1.13;0.90;;;;;;;18.59;68.98;101463.13;5110405;28;20114;-49
2022/04/26 12:42:07;;;;;;;0.57;0.57;;;;;;;18.71;66.72;101465.88;5104297;28;20088;-49
2022/04/26 12:44:33;;;;;;;2.42;0.85;;;;;;;17.76;65.83;101452.53;5096021;28;20110;-45
2022/04/26 12:50:28;;;;;;;1.30;0.43;;;;;;;15.80;62.93;101463.88;5105873;28;20088;-52
2022/04/26 12:53:05;;;;;;;1.65;0.70;;;;;;;15.87;70.70;101462.88;5093876;28;20035;-47
2022/04/26 12:55:36;;;;;;;0.60;0.60;;;;;;;15.90;70.72;101458.97;5097630;28;20032;-52
2022/04/26 12:58:06;;;;;;;0.77;0.60;;;;;;;15.47;70.71;101460.06;5100084;28;20101;-48
2022/04/26 13:00:33;;;;;;;1.42;0.40;;;;;;;15.62;71.56;101453.75;5091563;28;20047;-47
2022/04/26 13:03:02;;;;;;;1.90;0.40;;;;;;;15.53;70.69;101457.59;5095265;28;20082;-46
2022/04/26 13:05:29;;;;;;;3.35;0.50;;;;;;;15.49;71.84;101451.84;5096346;28;20047;-48
2022/04/26 13:07:55;;;;;;;0.63;0.60;;;;;;;15.40;73.34;101456.53;5097954;28;20085;-50
2022/04/26 13:10:21;;;;;;;3.72;0.60;;;;;;;14.95;72.05;101453.41;5107062;28;20070;-46
2022/04/26 13:12:46;;;;;;;0.75;0.35;;;;;;;14.58;71.21;101460.75;5103853;28;20040;-54
2022/04/26 13:15:15;;;;;;;0.45;0.45;;;;;;;15.07;71.14;101460.88;5099681;28;20047;-50
2022/04/26 13:17:41;;;;;;;0.85;0.85;;;;;;;14.95;69.46;101460.63;5099461;28;20032;-51
2022/04/26 13:20:08;;;;;;;1.27;0.40;;;;;;;15.15;70.46;101448.16;5094956;28;20370;-49
2022/04/26 13:22:35;;;;;;;2.40;0.50;;;;;;;15.30;71.12;101453.38;5091506;28;20436;-53
2022/04/26 13:25:03;;;;;;;0.90;0.57;;;;;;;15.47;70.90;101461.91;5098801;28;20031;-52
2022/04/26 13:27:29;;;;;;;1.75;0.60;;;;;;;15.24;70.70;101455.00;5105216;28;20023;-50
2022/04/26 13:29:54;;;;;;;2.08;0.52;;;;;;;15.38;71.48;101449.72;5102861;28;20515;-52
2022/04/26 13:32:20;;;;;;;0.57;0.50;;;;;;;15.20;69.74;101447.59;5098711;28;20023;-50
2022/04/26 13:34:45;;;;;;;0.75;0.30;;;;;;;15.46;71.42;101449.53;5093773;28;20552;-52
2022/04/26 13:37:12;;;;;;;0.82;0.57;;;;;;;15.53;69.51;101449.59;5096292;28;20127;-52
2022/04/26 13:39:39;;;;;;;0.90;0.35;;;;;;;15.13;66.12;101446.75;5101829;28;20031;-47
2022/04/26 13:42:05;;;;;;;6.03;0.85;;;;;;;14.85;68.07;101439.59;5107189;28;20439;-48
2022/04/26 13:44:30;;;;;;;0.60;0.30;;;;;;;14.73;67.66;101454.50;5108364;28;20027;-50
2022/04/26 13:46:57;;;;;;;3.30;0.50;;;;;;;14.62;68.02;101447.84;5096885;28;20036;-52
2022/04/26 13:49:23;;;;;;;4.32;0.32;;;;;;;14.99;70.26;101438.63;5105014;28;20055;-49
2022/04/26 13:51:48;;;;;;;0.55;0.55;;;;;;;15.46;68.59;101434.38;5095499;28;20066;-51
2022/04/26 13:54:13;;;;;;;0.20;0.20;;;;;;;15.80;67.83;101434.47;5097383;28;20023;-48
2022/04/26 13:56:39;;;;;;;1.02;0.38;;;;;;;15.92;68.15;101433.66;5103107;28;20477;-47
2022/04/26 13:59:05;;;;;;;0.38;0.35;;;;;;;15.89;68.06;101428.72;5095536;28;20532;-48
2022/04/26 14:01:30;;;;;;;0.55;0.30;;;;;;;15.48;66.38;101426.13;5101935;28;20028;-51
2022/04/26 14:03:55;;;;;;;1.40;0.32;;;;;;;15.23;68.04;101428.47;5094916;28;20072;-54
2022/04/26 14:06:21;;;;;;;0.85;0.10;;;;;;;14.95;66.94;101432.06;5098198;28;20047;-49
2022/04/26 14:08:50;;;;;;;0.73;0.20;;;;;;;14.91;67.62;101428.13;5110507;28;20023;-54
2022/04/26 14:11:17;;;;;;;2.05;0.22;;;;;;;14.84;66.63;101429.91;5098220;28;20122;-52
2022/04/26 14:21:54;;;;;;;0.40;0.38;;;;;;;16.54;64.91;101422.78;5099631;28;20033;-49
2022/04/26 14:24:20;;;;;;;3.22;0.50;;;;;;;16.35;64.58;101419.09;5109184;28;20024;-51
2022/04/26 14:26:45;;;;;;;0.52;0.28;;;;;;;16.33;64.28;101426.50;5103715;28;20473;-48
2022/04/26 14:29:10;;;;;;;0.70;0.63;;;;;;;16.45;66.48;101424.88;5099475;28;20024;-49
2022/04/26 14:31:36;;;;;;;1.55;0.30;;;;;;;16.41;63.69;101418.28;5102210;28;20477;-48
2022/04/26 14:34:02;;;;;;;0.70;0.25;;;;;;;16.33;63.22;101427.34;5107797;28;20037;-50
2022/04/26 14:36:28;;;;;;;0.63;0.43;;;;;;;16.58;64.88;101429.41;5101735;28;20028;-48
2022/04/26 14:38:53;;;;;;;0.10;0.10;;;;;;;16.49;64.07;101419.91;5096091;28;20031;-47
2022/04/26 14:41:19;;;;;;;2.03;0.35;;;;;;;16.14;64.99;101431.66;5107158;28;20027;-47
2022/04/26 14:43:44;;;;;;;1.27;0.65;;;;;;;15.85;64.93;101427.50;5092255;28;20334;-47
2022/04/26 14:46:10;;;;;;;2.58;0.47;;;;;;;15.86;66.70;101426.47;5097194;28;20024;-50
2022/04/26 14:48:36;;;;;;;2.88;0.57;;;;;;;15.65;66.04;101427.41;5084028;28;20104;-49
2022/04/26 14:51:01;;;;;;;0.73;0.70;;;;;;;15.37;67.66;101432.06;5097984;28;20108;-50
2022/04/26 14:53:27;;;;;;;0.50;0.32;;;;;;;15.01;67.70;101441.94;5101279;28;20487;-52
2022/04/26 14:55:52;;;;;;;1.05;0.40;;;;;;;14.80;67.89;101439.34;5094180;28;20418;-51
2022/04/26 14:58:18;;;;;;;1.92;0.32;;;;;;;14.63;69.65;101451.34;5096926;28;20032;-51
2022/04/26 15:00:43;;;;;;;0.63;0.43;;;;;;;14.51;68.39;101445.69;5089943;28;20032;-55
2022/04/26 15:03:08;;;;;;;4.50;0.43;;;;;;;14.40;68.66;101447.03;5091889;28;20505;-53
2022/04/26 15:05:34;;;;;;;1.95;0.70;;;;;;;14.31;71.01;101442.84;5097743;28;20099;-49
2022/04/26 15:10:43;;;;;;;1.85;0.10;;;;;;;14.07;70.33;101449.38;5098297;28;20043;-51
2022/04/26 15:18:37;;;;;;;2.08;0.20;;;;;;;15.32;68.74;101442.50;5093811;28;20102;-47
2022/04/26 15:21:04;;;;;;;0.40;0.40;;;;;;;15.26;69.37;101434.28;5093216;28;20098;-52
2022/04/26 15:23:30;;;;;;;0.68;0.68;;;;;;;15.26;68.21;101441.47;5092510;28;20461;-48
2022/04/26 15:25:55;;;;;;;1.48;0.65;;;;;;;15.10;69.59;101439.09;5094682;28;20107;-50
2022/04/26 15:28:22;;;;;;;1.00;0.30;;;;;;;15.15;71.19;101439.34;5100300;28;20031;-45
2022/04/26 15:30:49;;;;;;;0.45;0.22;;;;;;;15.08;68.25;101441.19;5094630;28;20457;-48
2022/04/26 15:33:18;;;;;;;1.00;0.50;;;;;;;15.03;68.46;101431.91;5091930;28;20027;-50
2022/04/26 15:35:44;;;;;;;0.68;0.28;;;;;;;15.08;70.70;101436.66;5096652;28;20038;-47